Time;durP1;ratioP1;P1;durP2;ratioP2;P2;SDS_P1;SDS_P2;PMS_P1;PMS_P2;Temp;Humidity;BMP_temperature;BMP_pressure;BME280_temperature;BME280_humidity;BME280_pressure;Samples;Min_cycle;Max_cycle;Signal;HPM_P1;HPM_P2
2023/05/15 00:02:04;;;;;;;26.42;23.52;;;;;;;12.10;100.00;101383.81;5009345;28;20053;-65
2023/05/15 00:04:30;;;;;;;25.63;23.23;;;;;;;12.07;100.00;101380.19;5009623;28;20037;-65
2023/05/15 00:06:55;;;;;;;25.48;22.88;;;;;;;12.05;100.00;101377.56;5009620;28;20021;-65
2023/05/15 00:09:21;;;;;;;27.98;25.13;;;;;;;11.99;100.00;101374.72;5009203;28;20021;-65
2023/05/15 00:11:46;;;;;;;27.35;24.20;;;;;;;11.97;100.00;101377.28;5009312;28;20116;-65
2023/05/15 00:14:11;;;;;;;27.20;24.50;;;;;;;11.97;100.00;101372.06;5008457;28;20057;-65
2023/05/15 00:16:36;;;;;;;26.98;24.27;;;;;;;11.94;100.00;101364.19;5009586;28;20486;-65
2023/05/15 00:19:02;;;;;;;29.90;25.60;;;;;;;11.88;100.00;101366.56;5009093;28;20028;-65
2023/05/15 00:21:27;;;;;;;28.10;25.30;;;;;;;11.84;100.00;101359.47;5009209;28;20393;-65
2023/05/15 00:23:52;;;;;;;28.15;25.42;;;;;;;11.79;100.00;101350.66;5009091;28;20072;-65
2023/05/15 00:26:18;;;;;;;27.05;24.23;;;;;;;11.74;100.00;101359.19;5008680;28;20121;-64
2023/05/15 00:28:43;;;;;;;27.70;24.98;;;;;;;11.71;100.00;101364.25;5009083;28;20084;-65
2023/05/15 00:31:11;;;;;;;28.33;25.38;;;;;;;11.67;100.00;101366.69;5008552;28;20026;-65
2023/05/15 00:33:36;;;;;;;27.85;25.13;;;;;;;11.63;100.00;101361.38;5008779;28;20014;-65
2023/05/15 00:36:01;;;;;;;26.48;23.80;;;;;;;11.58;100.00;101355.16;5008563;28;20030;-65
2023/05/15 00:38:27;;;;;;;27.13;24.23;;;;;;;11.52;100.00;101360.09;5008520;28;20539;-65
2023/05/15 00:40:53;;;;;;;28.38;25.38;;;;;;;11.47;100.00;101348.69;5008440;28;20104;-65
2023/05/15 00:43:19;;;;;;;27.70;24.73;;;;;;;11.41;100.00;101344.13;5008836;28;20104;-65
2023/05/15 00:45:45;;;;;;;26.90;24.00;;;;;;;11.39;100.00;101361.34;5008408;28;20109;-65
2023/05/15 00:48:11;;;;;;;29.08;25.98;;;;;;;11.39;100.00;101357.06;5008384;28;20030;-65
2023/05/15 00:50:40;;;;;;;29.73;26.67;;;;;;;11.35;100.00;101349.97;5008707;28;20497;-65
2023/05/15 00:53:06;;;;;;;28.90;25.95;;;;;;;11.32;100.00;101343.78;5008689;28;20053;-65
2023/05/15 00:55:32;;;;;;;29.02;26.00;;;;;;;11.26;100.00;101347.94;5008996;28;20532;-65
2023/05/15 00:58:00;;;;;;;30.50;26.58;;;;;;;11.17;100.00;101345.00;5007802;28;20026;-65
2023/05/15 01:00:26;;;;;;;31.42;28.33;;;;;;;11.16;100.00;101349.31;5008347;28;20021;-65
2023/05/15 01:02:52;;;;;;;30.67;27.02;;;;;;;11.11;100.00;101344.78;5007667;28;20045;-64
2023/05/15 01:05:18;;;;;;;30.17;26.20;;;;;;;11.10;100.00;101346.47;5008526;28;20036;-65
2023/05/15 01:07:51;;;;;;;30.80;27.50;;;;;;;11.07;100.00;101338.59;5008423;28;20493;-65
2023/05/15 01:10:18;;;;;;;31.52;28.42;;;;;;;11.00;100.00;101342.66;5008500;28;20030;-64
2023/05/15 01:12:46;;;;;;;30.40;27.30;;;;;;;11.00;100.00;101331.38;5007433;28;20461;-65
2023/05/15 01:15:11;;;;;;;30.00;26.88;;;;;;;10.95;100.00;101328.63;5007899;28;20026;-65
2023/05/15 01:17:37;;;;;;;30.70;27.42;;;;;;;10.91;100.00;101332.81;5007771;28;20048;-65
2023/05/15 01:20:08;;;;;;;30.67;27.60;;;;;;;10.95;100.00;101327.75;5008026;28;20025;-64
2023/05/15 01:22:54;;;;;;;31.35;28.08;;;;;;;10.95;100.00;101328.63;5007642;28;20014;-65
2023/05/15 01:25:31;;;;;;;32.63;29.25;;;;;;;10.97;100.00;101332.19;5007702;28;20030;-65
2023/05/15 01:28:08;;;;;;;32.17;28.98;;;;;;;10.97;100.00;101326.09;5007921;28;20022;-65
2023/05/15 01:30:37;;;;;;;34.00;30.35;;;;;;;10.95;100.00;101333.81;5007755;28;20030;-64
2023/05/15 01:33:11;;;;;;;35.60;30.17;;;;;;;10.97;100.00;101331.28;5007239;28;20473;-65
2023/05/15 01:35:48;;;;;;;31.63;27.88;;;;;;;10.94;100.00;101324.25;5007597;28;20049;-65
2023/05/15 01:38:41;;;;;;;31.40;27.92;;;;;;;10.90;100.00;101315.47;5007663;28;20109;-65
2023/05/15 01:41:30;;;;;;;33.10;29.60;;;;;;;10.91;100.00;101326.75;5007941;28;20033;-64
2023/05/15 01:44:01;;;;;;;32.47;29.15;;;;;;;10.89;100.00;101320.59;5007579;28;20041;-65
2023/05/15 01:46:28;;;;;;;;;;;;;;;10.79;100.00;101320.25;5008146;28;20146;-65
2023/05/15 01:48:53;;;;;;;32.53;29.10;;;;;;;10.76;100.00;101314.94;5007690;28;19909;-65
2023/05/15 01:51:20;;;;;;;30.70;27.50;;;;;;;10.73;100.00;101312.25;5006810;28;20111;-65
2023/05/15 01:53:46;;;;;;;33.88;29.70;;;;;;;10.68;100.00;101319.84;4999011;28;20065;-65
2023/05/15 01:56:13;;;;;;;33.13;28.48;;;;;;;10.65;100.00;101313.66;5006786;28;20026;-64
2023/05/15 01:58:40;;;;;;;33.17;29.73;;;;;;;10.61;100.00;101314.34;5007539;28;20468;-64
2023/05/15 02:01:06;;;;;;;31.42;28.13;;;;;;;10.57;100.00;101315.94;5007862;28;20264;-65
2023/05/15 02:03:33;;;;;;;34.47;29.10;;;;;;;10.52;100.00;101312.28;5007671;28;20045;-64
2023/05/15 02:06:03;;;;;;;33.72;30.00;;;;;;;10.49;100.00;101307.00;5007598;28;20021;-65
2023/05/15 02:08:30;;;;;;;32.90;29.40;;;;;;;10.44;100.00;101305.06;5007839;28;20037;-65
2023/05/15 02:10:58;;;;;;;31.55;28.27;;;;;;;10.37;100.00;101310.81;5007430;28;20029;-64
2023/05/15 02:13:25;;;;;;;31.58;28.25;;;;;;;10.30;100.00;101309.69;5007953;28;20048;-64
2023/05/15 02:15:51;;;;;;;32.88;29.48;;;;;;;10.20;100.00;101308.41;5008025;28;20076;-65
2023/05/15 02:18:16;;;;;;;32.53;29.20;;;;;;;10.09;100.00;101310.56;5007889;28;20026;-65
2023/05/15 02:20:41;;;;;;;36.10;30.98;;;;;;;10.07;100.00;101309.59;5007417;28;20440;-64
2023/05/15 02:23:07;;;;;;;35.03;30.63;;;;;;;10.01;100.00;101303.28;5007598;28;20026;-65
2023/05/15 02:26:07;;;;;;;35.60;31.77;;;;;;;9.97;100.00;101308.34;5007504;28;20018;-64
2023/05/15 02:28:41;;;;;;;34.10;30.40;;;;;;;9.96;100.00;101310.88;5007322;28;20112;-65
2023/05/15 02:31:16;;;;;;;34.28;30.58;;;;;;;9.93;100.00;101301.25;5007641;28;20343;-64
2023/05/15 02:33:50;;;;;;;35.63;31.75;;;;;;;9.94;100.00;101310.81;5007461;28;20022;-65
2023/05/15 02:36:22;;;;;;;35.63;31.10;;;;;;;9.89;100.00;101309.75;5007813;28;20109;-65
2023/05/15 02:38:50;;;;;;;32.95;29.65;;;;;;;9.91;100.00;101312.38;5007021;28;20017;-65
2023/05/15 02:41:17;;;;;;;36.47;31.95;;;;;;;9.92;100.00;101311.56;5006856;28;20117;-64
2023/05/15 02:43:43;;;;;;;36.03;31.48;;;;;;;9.94;100.00;101318.59;5006811;28;20026;-65
2023/05/15 02:46:09;;;;;;;34.15;30.65;;;;;;;9.95;100.00;101314.25;5007165;28;20026;-64
2023/05/15 02:48:39;;;;;;;36.17;31.50;;;;;;;10.00;100.00;101322.25;5007064;28;20116;-64
2023/05/15 02:51:06;;;;;;;36.08;32.17;;;;;;;9.96;100.00;101322.13;5006974;28;20367;-64
2023/05/15 02:53:32;;;;;;;41.35;33.80;;;;;;;9.98;100.00;101322.19;5007117;28;20044;-64
2023/05/15 02:55:57;;;;;;;37.22;32.75;;;;;;;9.98;100.00;101317.00;5006470;28;20367;-64
2023/05/15 02:58:23;;;;;;;36.38;32.42;;;;;;;10.00;100.00;101323.09;5007400;28;20048;-65
2023/05/15 03:00:48;;;;;;;40.08;34.45;;;;;;;10.00;100.00;101320.53;5007073;28;20092;-64
2023/05/15 03:03:13;;;;;;;37.45;32.58;;;;;;;10.02;100.00;101310.25;5007370;28;20065;-64
2023/05/15 03:05:39;;;;;;;39.85;34.35;;;;;;;10.02;100.00;101308.53;5010657;28;20470;-65
2023/05/15 03:08:04;;;;;;;42.20;35.40;;;;;;;10.01;100.00;101308.47;5010972;28;20249;-65
2023/05/15 03:10:30;;;;;;;38.50;33.30;;;;;;;10.00;100.00;101299.81;5010572;28;20026;-64
2023/05/15 03:12:58;;;;;;;40.63;35.65;;;;;;;9.97;100.00;101305.75;5010576;28;20580;-65
2023/05/15 03:15:23;;;;;;;40.65;35.35;;;;;;;9.95;100.00;101298.72;5009680;28;20026;-64
2023/05/15 03:17:49;;;;;;;41.00;34.33;;;;;;;9.95;100.00;101309.09;5010635;28;20107;-64
2023/05/15 03:20:14;;;;;;;39.60;35.15;;;;;;;9.94;100.00;101312.50;5010647;28;20024;-64
2023/05/15 03:22:41;;;;;;;41.85;34.55;;;;;;;9.90;100.00;101306.31;4997989;28;20473;-65
2023/05/15 03:25:09;;;;;;;42.83;36.33;;;;;;;9.89;100.00;101308.84;5009789;28;20108;-65
2023/05/15 03:27:34;;;;;;;41.60;35.17;;;;;;;9.88;100.00;101309.66;4997699;28;20018;-64
2023/05/15 03:30:00;;;;;;;41.83;34.50;;;;;;;9.85;100.00;101308.72;5009939;28;20040;-64
2023/05/15 03:32:25;;;;;;;39.88;34.53;;;;;;;9.85;100.00;101306.13;5010376;28;20038;-64
2023/05/15 03:34:50;;;;;;;39.92;33.95;;;;;;;9.82;100.00;101308.56;5009972;28;20530;-64
2023/05/15 03:37:16;;;;;;;43.90;35.45;;;;;;;9.82;100.00;101302.53;5008960;28;20105;-65
2023/05/15 03:39:41;;;;;;;40.00;34.13;;;;;;;9.79;100.00;101298.09;5008688;28;20033;-64
2023/05/15 03:42:06;;;;;;;40.40;35.53;;;;;;;9.77;100.00;101302.31;5008992;28;20033;-65
2023/05/15 03:44:32;;;;;;;40.92;35.13;;;;;;;9.73;100.00;101309.06;5008269;28;20037;-64
2023/05/15 03:46:57;;;;;;;44.08;36.40;;;;;;;9.71;100.00;101296.91;5007279;28;20030;-64
2023/05/15 03:49:22;;;;;;;41.05;34.08;;;;;;;9.67;100.00;101295.88;5008192;28;20029;-64
2023/05/15 03:51:48;;;;;;;37.70;33.45;;;;;;;9.67;100.00;101293.28;5007890;28;20036;-64
2023/05/15 03:54:13;;;;;;;41.78;33.78;;;;;;;9.67;100.00;101287.22;5008642;28;20108;-65
2023/05/15 03:56:38;;;;;;;40.05;33.42;;;;;;;9.63;100.00;101288.78;5009786;28;20472;-64
2023/05/15 03:59:04;;;;;;;38.75;33.70;;;;;;;9.61;100.00;101293.91;5009758;28;20038;-65
2023/05/15 04:01:29;;;;;;;38.78;32.70;;;;;;;9.60;100.00;101286.97;5009383;28;20029;-65
2023/05/15 04:03:54;;;;;;;38.65;34.35;;;;;;;9.56;100.00;101287.66;5009697;28;20054;-65
2023/05/15 04:06:19;;;;;;;40.83;34.70;;;;;;;9.48;100.00;101281.22;5009655;28;20045;-65
2023/05/15 04:08:45;;;;;;;40.67;33.65;;;;;;;9.43;100.00;101287.91;5009551;28;20048;-65
2023/05/15 04:11:11;;;;;;;43.33;34.33;;;;;;;9.39;100.00;101286.03;5009045;28;20033;-64
2023/05/15 04:13:36;;;;;;;38.85;33.80;;;;;;;9.35;100.00;101282.41;5009441;28;20025;-65
2023/05/15 04:16:02;;;;;;;40.90;33.90;;;;;;;9.30;100.00;101283.91;5008550;28;20220;-65
2023/05/15 04:18:28;;;;;;;40.88;35.22;;;;;;;9.25;100.00;101286.28;5009663;28;20061;-65
2023/05/15 04:20:53;;;;;;;41.78;34.72;;;;;;;9.23;100.00;101286.22;5009451;28;20041;-65
2023/05/15 04:23:18;;;;;;;39.33;34.30;;;;;;;9.24;100.00;101287.13;4991293;28;20485;-64
2023/05/15 04:25:45;;;;;;;40.47;34.40;;;;;;;9.28;100.00;101289.03;5009318;28;20064;-65
2023/05/15 04:28:12;;;;;;;43.08;33.83;;;;;;;9.31;100.00;101283.97;5009267;28;20025;-65
2023/05/15 04:30:37;;;;;;;40.33;35.15;;;;;;;9.35;100.00;101285.88;5008626;28;20034;-64
2023/05/15 04:33:02;;;;;;;48.08;37.53;;;;;;;9.39;100.00;101288.63;5009208;28;20085;-65
2023/05/15 04:35:29;;;;;;;48.47;38.65;;;;;;;9.45;100.00;101301.81;5008266;28;20033;-65
2023/05/15 04:37:54;;;;;;;47.60;37.60;;;;;;;9.47;100.00;101295.91;5009196;28;20034;-65
2023/05/15 04:40:20;;;;;;;47.65;38.42;;;;;;;9.50;100.00;101302.88;5008634;28;20018;-64
2023/05/15 04:42:45;;;;;;;43.67;37.40;;;;;;;9.53;100.00;101305.63;5008910;28;20390;-65
2023/05/15 04:45:10;;;;;;;47.83;38.67;;;;;;;9.55;100.00;101309.16;5008673;28;20489;-64
2023/05/15 04:47:36;;;;;;;47.47;38.03;;;;;;;9.60;100.00;101307.66;4990887;28;20436;-65
2023/05/15 04:50:01;;;;;;;48.15;38.35;;;;;;;9.63;100.00;101317.25;4991099;28;20414;-64
2023/05/15 04:52:27;;;;;;;47.40;38.58;;;;;;;9.65;100.00;101319.91;5008272;28;20550;-65
2023/05/15 04:54:54;;;;;;;47.33;36.80;;;;;;;9.66;100.00;101322.56;5008237;28;20177;-64
2023/05/15 04:57:20;;;;;;;46.03;36.85;;;;;;;9.68;100.00;101325.19;5008276;28;20022;-64
2023/05/15 04:59:45;;;;;;;47.17;36.30;;;;;;;9.69;100.00;101327.88;5008627;28;20481;-64
2023/05/15 05:02:10;;;;;;;47.33;36.75;;;;;;;9.69;100.00;101332.16;5008677;28;20109;-64
2023/05/15 05:04:36;;;;;;;47.22;36.50;;;;;;;9.69;100.00;101327.00;5009096;28;20029;-64
2023/05/15 05:07:04;;;;;;;45.42;36.20;;;;;;;9.71;100.00;101333.97;5007745;28;20030;-65
2023/05/15 05:09:29;;;;;;;47.38;37.38;;;;;;;9.77;100.00;101338.53;5008722;28;20652;-64
2023/05/15 05:11:55;;;;;;;45.47;37.17;;;;;;;9.81;100.00;101327.53;5008148;28;20022;-64
2023/05/15 05:14:20;;;;;;;47.22;35.85;;;;;;;9.85;100.00;101334.59;5007962;28;20037;-65
2023/05/15 05:16:45;;;;;;;46.65;36.53;;;;;;;9.89;100.00;101334.72;5007889;28;20053;-65
2023/05/15 05:19:11;;;;;;;40.38;34.25;;;;;;;9.93;100.00;101345.28;5008420;28;20029;-64
2023/05/15 05:21:36;;;;;;;41.30;34.35;;;;;;;9.98;100.00;101342.91;5007990;28;20022;-65
2023/05/15 05:24:01;;;;;;;45.13;35.38;;;;;;;10.02;100.00;101338.75;5008418;28;20485;-64
2023/05/15 05:26:27;;;;;;;39.63;33.08;;;;;;;10.03;100.00;101338.78;5008231;28;20030;-64
2023/05/15 05:28:52;;;;;;;42.15;33.90;;;;;;;10.06;100.00;101340.63;5007599;28;20021;-64
2023/05/15 05:31:18;;;;;;;42.22;34.90;;;;;;;10.07;100.00;101343.25;5008332;28;20515;-65
2023/05/15 05:33:43;;;;;;;42.50;33.45;;;;;;;10.11;100.00;101348.59;5007874;28;20494;-64
2023/05/15 05:36:09;;;;;;;40.20;33.63;;;;;;;10.11;100.00;101351.19;4990636;28;20547;-65
2023/05/15 05:38:35;;;;;;;43.35;34.05;;;;;;;10.14;100.00;101361.66;5007816;28;20355;-65
2023/05/15 05:41:01;;;;;;;38.67;33.08;;;;;;;10.16;100.00;101354.84;5007908;28;20021;-65
2023/05/15 05:43:27;;;;;;;42.50;32.97;;;;;;;10.17;100.00;101348.84;5008276;28;20014;-65
2023/05/15 05:45:52;;;;;;;42.15;33.08;;;;;;;10.19;100.00;101360.16;5008410;28;20025;-65
2023/05/15 05:48:17;;;;;;;40.03;32.78;;;;;;;10.18;100.00;101363.56;5007544;28;20554;-65
2023/05/15 05:50:43;;;;;;;41.42;33.10;;;;;;;10.20;100.00;101362.81;5007401;28;20108;-65
2023/05/15 05:53:08;;;;;;;38.80;31.88;;;;;;;10.25;100.00;101352.66;5006895;28;20114;-64
2023/05/15 05:55:34;;;;;;;37.78;32.05;;;;;;;10.29;100.00;101349.34;5007734;28;20025;-64
2023/05/15 05:58:00;;;;;;;39.08;31.45;;;;;;;10.35;100.00;101353.91;5007392;28;20519;-63
2023/05/15 06:00:25;;;;;;;37.58;30.55;;;;;;;10.38;100.00;101355.75;5007835;28;20014;-63
2023/05/15 06:02:55;;;;;;;35.92;30.38;;;;;;;10.43;100.00;101354.22;5007227;28;20064;-63
2023/05/15 06:05:22;;;;;;;32.15;28.67;;;;;;;10.46;100.00;101351.75;5007696;28;20040;-63
2023/05/15 06:07:47;;;;;;;35.72;29.88;;;;;;;10.49;100.00;101351.91;5008101;28;20080;-63
2023/05/15 06:10:13;;;;;;;37.05;30.60;;;;;;;10.66;100.00;101362.06;5007744;28;20492;-63
2023/05/15 06:12:38;;;;;;;33.65;28.98;;;;;;;10.86;100.00;101349.00;5007843;28;20488;-62
2023/05/15 06:15:04;;;;;;;34.40;29.00;;;;;;;11.15;100.00;101362.22;5008160;28;20026;-63
2023/05/15 06:17:29;;;;;;;31.83;27.80;;;;;;;11.42;100.00;101361.50;5007586;28;20029;-63
2023/05/15 06:19:54;;;;;;;29.90;25.38;;;;;;;11.66;100.00;101363.19;5007609;28;20084;-63
2023/05/15 06:22:20;;;;;;;30.05;25.67;;;;;;;11.73;100.00;101362.59;5007614;28;20079;-62
2023/05/15 06:24:46;;;;;;;30.27;26.98;;;;;;;11.77;100.00;101363.59;5006873;28;20060;-63
2023/05/15 06:27:11;;;;;;;27.60;24.70;;;;;;;11.76;100.00;101354.91;5005815;28;20021;-63
2023/05/15 06:29:36;;;;;;;28.88;24.95;;;;;;;11.75;100.00;101371.31;5005658;28;20152;-63
2023/05/15 06:32:01;;;;;;;29.33;26.02;;;;;;;11.67;100.00;101362.38;5005703;28;20149;-63
2023/05/15 06:34:27;;;;;;;27.83;24.83;;;;;;;11.59;100.00;101359.50;5006011;28;20056;-63
2023/05/15 06:36:52;;;;;;;28.73;25.20;;;;;;;11.59;100.00;101369.00;5005217;28;20024;-64
2023/05/15 06:39:17;;;;;;;28.30;25.33;;;;;;;11.55;100.00;101359.34;5008637;28;20037;-63
2023/05/15 06:41:43;;;;;;;28.02;24.67;;;;;;;11.66;100.00;101360.59;5010896;28;20508;-64
2023/05/15 06:44:08;;;;;;;29.83;26.67;;;;;;;11.88;100.00;101351.88;5010647;28;20036;-63
2023/05/15 06:46:33;;;;;;;28.10;25.33;;;;;;;12.13;100.00;101351.84;5010428;28;20152;-63
2023/05/15 06:48:58;;;;;;;29.48;25.88;;;;;;;12.40;100.00;101351.00;5011515;28;20037;-63
2023/05/15 06:51:24;;;;;;;28.17;25.38;;;;;;;12.61;100.00;101357.72;5011140;28;20029;-63
2023/05/15 06:53:49;;;;;;;24.23;21.92;;;;;;;12.87;100.00;101351.56;5011374;28;20049;-63
2023/05/15 06:56:14;;;;;;;24.33;22.02;;;;;;;13.11;100.00;101354.06;5010953;28;20025;-63
2023/05/15 06:58:39;;;;;;;25.25;22.75;;;;;;;13.37;100.00;101353.03;5011166;28;20036;-64
2023/05/15 07:01:06;;;;;;;28.38;25.48;;;;;;;13.44;100.00;101361.06;5011462;28;20532;-64
2023/05/15 07:03:31;;;;;;;29.23;26.13;;;;;;;13.47;100.00;101349.88;5011009;28;20453;-63
2023/05/15 07:05:56;;;;;;;27.67;25.08;;;;;;;13.59;100.00;101349.34;5010695;28;20397;-64
2023/05/15 07:08:22;;;;;;;27.05;24.25;;;;;;;13.64;100.00;101358.16;5010345;28;20049;-63
2023/05/15 07:10:48;;;;;;;27.08;24.50;;;;;;;13.62;100.00;101349.44;5010827;28;20029;-63
2023/05/15 07:13:15;;;;;;;27.02;24.17;;;;;;;13.73;100.00;101348.81;5011194;28;20022;-63
2023/05/15 07:15:40;;;;;;;27.13;24.23;;;;;;;13.96;100.00;101359.00;5010846;28;20034;-63
2023/05/15 07:18:06;;;;;;;27.20;24.60;;;;;;;14.20;100.00;101352.63;5011111;28;20596;-63
2023/05/15 07:20:31;;;;;;;29.65;26.35;;;;;;;14.29;100.00;101352.88;5009590;28;20022;-63
2023/05/15 07:22:56;;;;;;;25.50;23.05;;;;;;;14.56;100.00;101358.72;5010572;28;20018;-63
2023/05/15 07:25:22;;;;;;;27.48;24.73;;;;;;;14.67;100.00;101351.16;5010795;28;20026;-63
2023/05/15 07:27:47;;;;;;;26.48;23.90;;;;;;;14.77;100.00;101353.13;5010929;28;20021;-64
2023/05/15 07:30:13;;;;;;;26.17;23.75;;;;;;;14.84;99.75;101356.81;5010532;28;21105;-64
2023/05/15 07:32:38;;;;;;;26.05;23.30;;;;;;;14.72;98.15;101346.91;5010925;28;20034;-64
2023/05/15 07:35:05;;;;;;;24.30;21.90;;;;;;;14.73;100.00;101344.34;5009813;28;20053;-64
2023/05/15 07:37:30;;;;;;;25.55;23.13;;;;;;;14.92;100.00;101344.78;5010453;28;20108;-63
2023/05/15 07:39:56;;;;;;;24.15;21.70;;;;;;;14.97;98.24;101342.28;5010773;28;20125;-64
2023/05/15 07:42:21;;;;;;;25.70;23.20;;;;;;;14.84;99.52;101347.22;5010475;28;20108;-64
2023/05/15 07:44:46;;;;;;;26.70;23.98;;;;;;;14.89;99.92;101353.41;5010447;28;20104;-64
2023/05/15 07:47:11;;;;;;;25.70;23.40;;;;;;;15.13;99.38;101346.09;5009913;28;20026;-63
2023/05/15 07:49:37;;;;;;;24.83;22.63;;;;;;;15.40;98.01;101341.44;5009912;28;20026;-64
2023/05/15 07:52:02;;;;;;;23.33;21.20;;;;;;;15.52;95.73;101343.41;5009995;28;20025;-64
2023/05/15 07:54:30;;;;;;;22.98;20.88;;;;;;;15.81;94.05;101341.31;5010250;28;20088;-64
2023/05/15 07:56:56;;;;;;;25.08;22.77;;;;;;;16.02;91.22;101340.00;5009781;28;20025;-63
2023/05/15 07:59:21;;;;;;;23.20;20.92;;;;;;;16.28;93.45;101339.53;5009758;28;20029;-63
2023/05/15 08:01:46;;;;;;;23.90;21.65;;;;;;;16.53;92.01;101339.91;5009757;28;20018;-64
2023/05/15 08:04:12;;;;;;;23.67;21.42;;;;;;;16.43;87.60;101332.78;5009800;28;20053;-63
2023/05/15 08:06:37;;;;;;;25.35;22.85;;;;;;;16.50;88.87;101339.88;5010404;28;20033;-64
2023/05/15 08:09:03;;;;;;;24.52;22.30;;;;;;;16.68;88.60;101336.66;5009402;28;20026;-63
2023/05/15 08:11:28;;;;;;;24.13;21.92;;;;;;;16.37;87.57;101330.94;5009081;28;20044;-64
2023/05/15 08:13:53;;;;;;;25.23;22.85;;;;;;;16.26;88.69;101330.78;5009447;28;20520;-64
2023/05/15 08:16:19;;;;;;;23.20;21.00;;;;;;;16.43;89.07;101338.03;5009661;28;20088;-64
2023/05/15 08:18:44;;;;;;;24.02;21.77;;;;;;;16.62;89.38;101323.47;5009323;28;20022;-63
2023/05/15 08:21:10;;;;;;;24.23;21.88;;;;;;;16.93;88.08;101330.88;5008860;28;20173;-63
2023/05/15 08:23:35;;;;;;;26.27;22.75;;;;;;;17.24;83.07;101326.06;5009378;28;20033;-63
2023/05/15 08:26:00;;;;;;;25.15;22.73;;;;;;;17.43;84.09;101323.66;5009451;28;20017;-63
2023/05/15 08:28:26;;;;;;;24.02;21.83;;;;;;;17.61;82.82;101322.13;5008933;28;20160;-64
2023/05/15 08:30:51;;;;;;;24.98;22.45;;;;;;;17.87;78.53;101329.34;5009017;28;20026;-63
2023/05/15 08:33:16;;;;;;;23.13;20.92;;;;;;;17.98;81.11;101337.31;5009046;28;20026;-64
2023/05/15 08:35:41;;;;;;;24.40;22.05;;;;;;;18.09;78.18;101335.66;5009167;28;20072;-64
2023/05/15 08:38:07;;;;;;;26.60;24.25;;;;;;;17.81;76.66;101334.53;5008875;28;20030;-64
2023/05/15 08:40:32;;;;;;;26.15;23.55;;;;;;;17.83;80.78;101338.03;5008927;28;20045;-64
2023/05/15 08:43:13;;;;;;;29.13;26.52;;;;;;;17.99;80.54;101328.56;5008601;28;20053;-63
2023/05/15 08:45:39;;;;;;;29.85;26.88;;;;;;;18.24;77.59;101334.94;4999058;28;20040;-64
2023/05/15 08:48:10;;;;;;;31.15;28.30;;;;;;;18.17;81.61;101333.13;5008616;28;20054;-62
2023/05/15 08:50:37;;;;;;;32.85;29.65;;;;;;;18.08;74.79;101333.03;5008792;28;20113;-62
2023/05/15 08:53:03;;;;;;;33.55;30.33;;;;;;;17.86;78.39;101332.84;5008701;28;20034;-63
2023/05/15 08:55:28;;;;;;;35.42;32.13;;;;;;;18.06;82.99;101321.66;4991231;28;20084;-63
2023/05/15 08:57:54;;;;;;;34.00;30.70;;;;;;;18.24;80.74;101324.44;5008680;28;20026;-63
2023/05/15 09:00:21;;;;;;;31.08;28.08;;;;;;;18.34;83.02;101325.41;5008429;28;20265;-63
2023/05/15 09:02:46;;;;;;;34.00;30.70;;;;;;;18.11;78.01;101322.56;5008074;28;20113;-62
2023/05/15 09:05:12;;;;;;;34.13;30.92;;;;;;;17.98;80.54;101325.09;5008667;28;20059;-63
2023/05/15 09:07:39;;;;;;;33.50;30.20;;;;;;;18.02;81.85;101325.09;5008713;28;20029;-63
2023/05/15 09:10:05;;;;;;;36.55;33.05;;;;;;;17.96;81.85;101334.69;5008842;28;20037;-63
2023/05/15 09:12:33;;;;;;;36.47;32.85;;;;;;;17.87;82.06;101334.59;5008379;28;20030;-63
2023/05/15 09:15:12;;;;;;;36.08;32.28;;;;;;;17.98;81.89;101339.94;5007987;28;20030;-63
2023/05/15 09:17:39;;;;;;;35.60;32.33;;;;;;;18.15;80.25;101334.84;5008602;28;20078;-62
2023/05/15 09:20:05;;;;;;;34.90;31.17;;;;;;;18.27;80.10;101327.97;5008805;28;20108;-63
2023/05/15 09:22:33;;;;;;;35.10;31.77;;;;;;;18.33;80.02;101334.13;5007518;28;20496;-63
2023/05/15 09:24:58;;;;;;;36.53;33.22;;;;;;;18.02;80.02;101330.34;5008563;28;20532;-63
2023/05/15 09:27:24;;;;;;;35.10;31.42;;;;;;;17.96;79.48;101323.31;5008546;28;20480;-63
2023/05/15 09:29:53;;;;;;;35.28;31.98;;;;;;;18.23;80.71;101327.06;5008600;28;20076;-63
2023/05/15 09:32:19;;;;;;;34.38;30.98;;;;;;;18.47;80.70;101322.88;5007923;28;20034;-63
2023/05/15 09:34:45;;;;;;;33.22;29.88;;;;;;;18.55;78.31;101323.78;5008609;28;20032;-63
2023/05/15 09:37:26;;;;;;;34.53;31.00;;;;;;;18.60;79.44;101323.81;5007539;28;20104;-63
2023/05/15 09:39:51;;;;;;;35.45;32.05;;;;;;;18.11;76.67;101322.56;5007946;28;20076;-65
2023/05/15 09:42:16;;;;;;;33.92;30.58;;;;;;;18.07;82.90;101321.66;5007750;28;20477;-62
2023/05/15 09:44:43;;;;;;;33.30;30.00;;;;;;;17.99;81.00;101324.22;5007855;28;20018;-64
2023/05/15 09:47:13;;;;;;;28.40;25.30;;;;;;;17.98;82.36;101321.56;5007675;28;20104;-64
2023/05/15 09:49:42;;;;;;;22.40;20.25;;;;;;;17.99;83.01;101318.97;5008081;28;20480;-65
2023/05/15 09:52:08;;;;;;;21.13;19.00;;;;;;;17.97;81.31;101315.44;5008721;28;20099;-65
2023/05/15 09:54:35;;;;;;;20.17;18.20;;;;;;;17.92;82.01;101319.78;5007092;28;20033;-64
2023/05/15 09:57:12;;;;;;;27.02;24.45;;;;;;;17.91;85.72;101325.91;5008052;28;20385;-64
2023/05/15 09:59:45;;;;;;;23.85;21.42;;;;;;;17.85;82.82;101321.47;5007682;28;20026;-64
2023/05/15 10:02:39;;;;;;;23.27;21.13;;;;;;;17.74;83.14;101326.59;4990359;28;20013;-64
2023/05/15 10:05:04;;;;;;;25.05;22.60;;;;;;;17.64;80.96;101327.38;5006154;28;20409;-64
2023/05/15 10:07:35;;;;;;;25.73;22.48;;;;;;;17.60;82.98;101325.56;5007501;28;20030;-64
2023/05/15 10:10:01;;;;;;;25.67;22.77;;;;;;;17.52;84.72;101326.38;5007214;28;20034;-65
2023/05/15 10:12:28;;;;;;;25.45;23.05;;;;;;;17.43;85.16;101326.28;5007364;28;20053;-64
2023/05/15 10:14:56;;;;;;;24.33;21.92;;;;;;;17.41;88.59;101335.88;5011837;28;20018;-64
2023/05/15 10:17:22;;;;;;;24.60;22.15;;;;;;;17.42;89.42;101326.25;5011412;28;20100;-64
2023/05/15 10:19:50;;;;;;;25.80;23.55;;;;;;;17.37;91.22;101331.44;5011401;28;20105;-64
2023/05/15 10:22:21;;;;;;;27.00;24.25;;;;;;;17.32;91.19;101341.00;5011579;28;20727;-64
2023/05/15 10:24:59;;;;;;;27.25;24.63;;;;;;;17.24;89.07;101344.41;5011981;28;20065;-64
2023/05/15 10:27:26;;;;;;;27.70;24.98;;;;;;;17.24;89.57;101344.41;5011611;28;20052;-64
2023/05/15 10:29:51;;;;;;;26.77;24.23;;;;;;;17.20;91.70;101337.34;5011634;28;20117;-64
2023/05/15 10:32:18;;;;;;;27.17;24.58;;;;;;;17.19;93.30;101338.22;5011462;28;20195;-64
2023/05/15 10:34:44;;;;;;;26.85;24.20;;;;;;;17.09;92.07;101331.94;5011057;28;20786;-64
2023/05/15 10:37:10;;;;;;;28.20;25.33;;;;;;;16.93;93.79;101336.09;5011423;28;20072;-64
2023/05/15 10:39:38;;;;;;;29.40;26.55;;;;;;;16.86;94.84;101331.66;5011385;28;20054;-64
2023/05/15 10:42:04;;;;;;;28.08;25.45;;;;;;;16.85;95.34;101336.03;5011178;28;20022;-65
2023/05/15 10:44:30;;;;;;;28.10;25.42;;;;;;;16.84;95.21;101338.63;5011020;28;20033;-64
2023/05/15 10:46:55;;;;;;;28.50;25.58;;;;;;;16.84;96.43;101336.00;5009356;28;20165;-64
2023/05/15 10:49:20;;;;;;;28.58;25.77;;;;;;;16.79;97.64;101331.59;5002322;28;20047;-64
2023/05/15 10:51:46;;;;;;;27.42;24.75;;;;;;;16.74;97.76;101333.25;4987469;28;20105;-64
2023/05/15 10:54:11;;;;;;;27.90;25.15;;;;;;;16.72;99.07;101327.13;5011537;28;20047;-64
2023/05/15 10:56:38;;;;;;;30.08;27.17;;;;;;;16.65;97.92;101330.50;5012180;28;20492;-64
2023/05/15 10:59:06;;;;;;;30.75;27.70;;;;;;;16.64;98.83;101332.22;5012468;28;20867;-63
2023/05/15 11:01:34;;;;;;;30.85;27.83;;;;;;;16.56;97.72;101334.75;5011858;28;20443;-64
2023/05/15 11:04:22;;;;;;;30.58;27.65;;;;;;;16.49;96.72;101340.75;5011466;28;20089;-64
2023/05/15 11:06:49;;;;;;;29.80;26.83;;;;;;;16.53;99.52;101344.28;5012096;28;20034;-64